Etusivu
METAR-TAF:

METAR-TAF

Lentoasemat :

Willmar Municipal Airport (John L. Rice Field)

Willmar, Minnesota, Yhdysvallat

Leveyspiiri: 45-07N, Pituuspiiri: 095-05W, korkeus merenpinnasta: 344 m

Tämänhetkinen sää

Tämä raportti tehtiin 8 minuuttia sitten, kello 10.15 UTC
Tuuli 8 kn kaakosta
Lämpötila 23°C
Kosteus 89%
Ilmanpaine 1014 hPa
Näkyvyys: 16.1 km
selkeää

METAR: KBDH 141015Z AUTO 14008KT 10SM CLR 23/21 A2995 RMK AO2 LTG DSNT NW THRU NE

Aika: 05:23 (10:23 UTC)


TAF: puuttuu

Säähavainnot ja -ennusteet yli 4000 lentoasemalta (METAR- ja TAF-raportit).

Käytössä olevat sääasemat on merkitty karttaan keltaisilla ja punaisilla pisteillä.

Aseta hiiri pisteen päälle nähdäksesi sääaseman nimen.

Klikkaa sitten nähdäksesi säähavainnot ja -ennusteet.

Kartan vaihtaminen: klikkaa mustalla rastilla varustettuja vihreitä pisteitä, niin voit zoomata sisään; viivalla varustettua vihreää pistettä, niin voit zoomata ulos tai vihreitä nuolia, niin pääset viereisille kartoille.


METAR-TAF: